sensor_id;sensor_type;location;lat;lon;timestamp;P1;durP1;ratioP1;P2;durP2;ratioP2
36215;SDS011;22257;52.232;21.084;2022-08-21T00:00:18;10.70;;;4.03;;
36215;SDS011;22257;52.232;21.084;2022-08-21T00:02:50;7.83;;;4.05;;
36215;SDS011;22257;52.232;21.084;2022-08-21T00:05:16;9.38;;;4.40;;
36215;SDS011;22257;52.232;21.084;2022-08-21T00:07:45;9.85;;;4.70;;
36215;SDS011;22257;52.232;21.084;2022-08-21T00:10:11;7.65;;;3.77;;
36215;SDS011;22257;52.232;21.084;2022-08-21T00:12:39;5.78;;;3.87;;
36215;SDS011;22257;52.232;21.084;2022-08-21T00:15:07;9.40;;;4.00;;
36215;SDS011;22257;52.232;21.084;2022-08-21T00:17:35;10.00;;;3.92;;
36215;SDS011;22257;52.232;21.084;2022-08-21T00:20:06;7.22;;;4.08;;
36215;SDS011;22257;52.232;21.084;2022-08-21T00:22:34;7.10;;;4.22;;
36215;SDS011;22257;52.232;21.084;2022-08-21T00:25:03;8.03;;;4.45;;
36215;SDS011;22257;52.232;21.084;2022-08-21T00:27:31;11.93;;;3.80;;
36215;SDS011;22257;52.232;21.084;2022-08-21T00:29:58;4.67;;;3.83;;
36215;SDS011;22257;52.232;21.084;2022-08-21T00:32:25;6.95;;;4.05;;
36215;SDS011;22257;52.232;21.084;2022-08-21T00:34:52;10.53;;;3.95;;
36215;SDS011;22257;52.232;21.084;2022-08-21T00:37:19;11.53;;;4.42;;
36215;SDS011;22257;52.232;21.084;2022-08-21T00:39:46;11.55;;;3.98;;
36215;SDS011;22257;52.232;21.084;2022-08-21T00:42:13;5.72;;;4.03;;
36215;SDS011;22257;52.232;21.084;2022-08-21T00:44:41;5.70;;;3.80;;
36215;SDS011;22257;52.232;21.084;2022-08-21T00:47:09;7.70;;;4.00;;
36215;SDS011;22257;52.232;21.084;2022-08-21T00:49:36;10.65;;;4.20;;
36215;SDS011;22257;52.232;21.084;2022-08-21T00:52:04;7.45;;;4.15;;
36215;SDS011;22257;52.232;21.084;2022-08-21T00:54:33;5.78;;;4.20;;
36215;SDS011;22257;52.232;21.084;2022-08-21T00:57:01;8.90;;;4.25;;
36215;SDS011;22257;52.232;21.084;2022-08-21T01:01:58;6.03;;;3.85;;
36215;SDS011;22257;52.232;21.084;2022-08-21T01:04:24;6.60;;;3.70;;
36215;SDS011;22257;52.232;21.084;2022-08-21T01:06:51;8.98;;;4.00;;
36215;SDS011;22257;52.232;21.084;2022-08-21T01:09:17;11.03;;;4.00;;
36215;SDS011;22257;52.232;21.084;2022-08-21T01:11:44;8.25;;;4.08;;
36215;SDS011;22257;52.232;21.084;2022-08-21T01:14:11;5.83;;;4.12;;
36215;SDS011;22257;52.232;21.084;2022-08-21T01:16:41;7.55;;;4.33;;
36215;SDS011;22257;52.232;21.084;2022-08-21T01:19:10;9.08;;;4.50;;
36215;SDS011;22257;52.232;21.084;2022-08-21T01:21:36;5.00;;;3.92;;
36215;SDS011;22257;52.232;21.084;2022-08-21T01:24:03;9.38;;;4.22;;
36215;SDS011;22257;52.232;21.084;2022-08-21T01:26:31;13.62;;;6.10;;
36215;SDS011;22257;52.232;21.084;2022-08-21T01:29:09;7.97;;;4.03;;
36215;SDS011;22257;52.232;21.084;2022-08-21T01:31:33;7.80;;;4.30;;
36215;SDS011;22257;52.232;21.084;2022-08-21T01:33:59;6.65;;;4.17;;
36215;SDS011;22257;52.232;21.084;2022-08-21T01:36:26;10.28;;;3.70;;
36215;SDS011;22257;52.232;21.084;2022-08-21T01:38:52;8.15;;;4.17;;
36215;SDS011;22257;52.232;21.084;2022-08-21T01:41:19;8.03;;;4.10;;
36215;SDS011;22257;52.232;21.084;2022-08-21T01:43:45;9.78;;;4.22;;
36215;SDS011;22257;52.232;21.084;2022-08-21T01:46:11;6.75;;;4.10;;
36215;SDS011;22257;52.232;21.084;2022-08-21T01:48:38;12.07;;;4.25;;
36215;SDS011;22257;52.232;21.084;2022-08-21T01:51:05;4.33;;;3.90;;
36215;SDS011;22257;52.232;21.084;2022-08-21T01:53:32;6.30;;;4.15;;
36215;SDS011;22257;52.232;21.084;2022-08-21T01:56:02;8.40;;;4.73;;
36215;SDS011;22257;52.232;21.084;2022-08-21T01:58:31;4.83;;;3.70;;
36215;SDS011;22257;52.232;21.084;2022-08-21T02:00:59;10.08;;;4.75;;
36215;SDS011;22257;52.232;21.084;2022-08-21T02:03:27;6.72;;;4.22;;
36215;SDS011;22257;52.232;21.084;2022-08-21T02:05:55;6.50;;;4.00;;
36215;SDS011;22257;52.232;21.084;2022-08-21T02:08:21;6.40;;;3.90;;
36215;SDS011;22257;52.232;21.084;2022-08-21T02:10:49;31.42;;;5.53;;
36215;SDS011;22257;52.232;21.084;2022-08-21T02:13:17;7.92;;;4.78;;
36215;SDS011;22257;52.232;21.084;2022-08-21T02:15:43;11.80;;;4.87;;
36215;SDS011;22257;52.232;21.084;2022-08-21T02:18:09;7.83;;;4.45;;
36215;SDS011;22257;52.232;21.084;2022-08-21T02:20:38;9.40;;;3.92;;
36215;SDS011;22257;52.232;21.084;2022-08-21T02:23:06;9.77;;;4.30;;
36215;SDS011;22257;52.232;21.084;2022-08-21T02:25:35;9.53;;;4.30;;
36215;SDS011;22257;52.232;21.084;2022-08-21T02:28:05;7.03;;;4.37;;
36215;SDS011;22257;52.232;21.084;2022-08-21T02:30:36;5.45;;;4.22;;
36215;SDS011;22257;52.232;21.084;2022-08-21T02:33:06;7.95;;;4.12;;
36215;SDS011;22257;52.232;21.084;2022-08-21T02:35:33;9.65;;;4.25;;
36215;SDS011;22257;52.232;21.084;2022-08-21T02:38:00;9.78;;;4.40;;
36215;SDS011;22257;52.232;21.084;2022-08-21T02:40:30;8.63;;;4.20;;
36215;SDS011;22257;52.232;21.084;2022-08-21T02:42:59;6.25;;;3.77;;
36215;SDS011;22257;52.232;21.084;2022-08-21T02:45:28;7.72;;;4.40;;
36215;SDS011;22257;52.232;21.084;2022-08-21T02:47:56;11.30;;;4.40;;
36215;SDS011;22257;52.232;21.084;2022-08-21T02:50:37;8.30;;;4.03;;
36215;SDS011;22257;52.232;21.084;2022-08-21T02:53:07;6.47;;;4.17;;
36215;SDS011;22257;52.232;21.084;2022-08-21T02:55:34;10.15;;;4.08;;
36215;SDS011;22257;52.232;21.084;2022-08-21T02:58:03;7.28;;;4.15;;
36215;SDS011;22257;52.232;21.084;2022-08-21T03:00:31;9.35;;;4.12;;
36215;SDS011;22257;52.232;21.084;2022-08-21T03:02:58;6.10;;;3.65;;
36215;SDS011;22257;52.232;21.084;2022-08-21T03:05:26;7.10;;;4.42;;
36215;SDS011;22257;52.232;21.084;2022-08-21T03:07:54;8.85;;;4.00;;
36215;SDS011;22257;52.232;21.084;2022-08-21T03:10:21;8.05;;;4.58;;
36215;SDS011;22257;52.232;21.084;2022-08-21T03:12:48;7.60;;;4.12;;
36215;SDS011;22257;52.232;21.084;2022-08-21T03:15:15;6.03;;;4.10;;
36215;SDS011;22257;52.232;21.084;2022-08-21T03:17:44;12.40;;;4.65;;
36215;SDS011;22257;52.232;21.084;2022-08-21T03:20:12;5.90;;;4.03;;
36215;SDS011;22257;52.232;21.084;2022-08-21T03:22:40;9.88;;;4.20;;
36215;SDS011;22257;52.232;21.084;2022-08-21T03:25:07;8.38;;;4.37;;
36215;SDS011;22257;52.232;21.084;2022-08-21T03:27:34;7.08;;;4.45;;
36215;SDS011;22257;52.232;21.084;2022-08-21T03:30:00;6.45;;;4.20;;
36215;SDS011;22257;52.232;21.084;2022-08-21T03:32:29;9.03;;;4.20;;
36215;SDS011;22257;52.232;21.084;2022-08-21T03:34:57;8.40;;;4.12;;
36215;SDS011;22257;52.232;21.084;2022-08-21T03:37:26;5.85;;;4.47;;
36215;SDS011;22257;52.232;21.084;2022-08-21T03:39:52;10.60;;;4.95;;
36215;SDS011;22257;52.232;21.084;2022-08-21T03:42:18;10.28;;;4.42;;
36215;SDS011;22257;52.232;21.084;2022-08-21T03:44:45;12.73;;;4.60;;
36215;SDS011;22257;52.232;21.084;2022-08-21T03:47:11;7.87;;;4.30;;
36215;SDS011;22257;52.232;21.084;2022-08-21T03:49:38;7.28;;;4.37;;
36215;SDS011;22257;52.232;21.084;2022-08-21T03:52:04;7.00;;;4.50;;
36215;SDS011;22257;52.232;21.084;2022-08-21T03:54:30;8.13;;;4.30;;
36215;SDS011;22257;52.232;21.084;2022-08-21T03:56:57;10.70;;;4.30;;
36215;SDS011;22257;52.232;21.084;2022-08-21T03:59:23;9.83;;;4.80;;
36215;SDS011;22257;52.232;21.084;2022-08-21T04:01:56;11.43;;;4.50;;
36215;SDS011;22257;52.232;21.084;2022-08-21T04:04:20;10.18;;;4.00;;
36215;SDS011;22257;52.232;21.084;2022-08-21T04:06:47;6.75;;;4.50;;
36215;SDS011;22257;52.232;21.084;2022-08-21T04:09:13;8.38;;;4.37;;
36215;SDS011;22257;52.232;21.084;2022-08-21T04:11:39;7.33;;;4.70;;
36215;SDS011;22257;52.232;21.084;2022-08-21T04:14:05;8.60;;;4.20;;
36215;SDS011;22257;52.232;21.084;2022-08-21T04:16:32;9.05;;;4.10;;
36215;SDS011;22257;52.232;21.084;2022-08-21T04:18:58;7.33;;;4.05;;
36215;SDS011;22257;52.232;21.084;2022-08-21T04:21:24;9.68;;;3.77;;
36215;SDS011;22257;52.232;21.084;2022-08-21T04:23:50;5.15;;;3.80;;
36215;SDS011;22257;52.232;21.084;2022-08-21T04:26:22;8.60;;;4.42;;
36215;SDS011;22257;52.232;21.084;2022-08-21T04:28:49;6.47;;;4.67;;
36215;SDS011;22257;52.232;21.084;2022-08-21T04:31:15;6.75;;;4.20;;
36215;SDS011;22257;52.232;21.084;2022-08-21T04:33:41;10.68;;;4.12;;
36215;SDS011;22257;52.232;21.084;2022-08-21T04:36:08;5.95;;;3.75;;
36215;SDS011;22257;52.232;21.084;2022-08-21T04:38:35;5.47;;;3.95;;
36215;SDS011;22257;52.232;21.084;2022-08-21T04:41:01;9.38;;;3.65;;
36215;SDS011;22257;52.232;21.084;2022-08-21T04:43:27;7.30;;;4.28;;
36215;SDS011;22257;52.232;21.084;2022-08-21T04:45:54;7.83;;;3.95;;
36215;SDS011;22257;52.232;21.084;2022-08-21T04:48:21;5.83;;;3.67;;
36215;SDS011;22257;52.232;21.084;2022-08-21T04:58:22;6.10;;;4.00;;
36215;SDS011;22257;52.232;21.084;2022-08-21T05:00:52;6.97;;;4.15;;
36215;SDS011;22257;52.232;21.084;2022-08-21T05:03:20;6.58;;;4.35;;
36215;SDS011;22257;52.232;21.084;2022-08-21T05:05:48;10.25;;;4.12;;
36215;SDS011;22257;52.232;21.084;2022-08-21T05:08:15;7.70;;;4.00;;
36215;SDS011;22257;52.232;21.084;2022-08-21T05:10:45;7.95;;;4.12;;
36215;SDS011;22257;52.232;21.084;2022-08-21T05:13:11;6.85;;;4.35;;
36215;SDS011;22257;52.232;21.084;2022-08-21T05:15:38;9.80;;;4.25;;
36215;SDS011;22257;52.232;21.084;2022-08-21T05:18:05;5.72;;;4.10;;
36215;SDS011;22257;52.232;21.084;2022-08-21T05:20:32;5.28;;;3.87;;
36215;SDS011;22257;52.232;21.084;2022-08-21T05:23:05;7.30;;;4.00;;
36215;SDS011;22257;52.232;21.084;2022-08-21T05:25:37;4.22;;;3.72;;
36215;SDS011;22257;52.232;21.084;2022-08-21T05:28:04;8.90;;;4.00;;
36215;SDS011;22257;52.232;21.084;2022-08-21T05:30:31;7.12;;;4.03;;
36215;SDS011;22257;52.232;21.084;2022-08-21T05:32:59;5.90;;;3.75;;
36215;SDS011;22257;52.232;21.084;2022-08-21T05:35:28;12.40;;;4.40;;
36215;SDS011;22257;52.232;21.084;2022-08-21T05:37:56;8.20;;;4.28;;
36215;SDS011;22257;52.232;21.084;2022-08-21T05:40:22;6.20;;;3.60;;
36215;SDS011;22257;52.232;21.084;2022-08-21T05:42:50;9.78;;;3.72;;
36215;SDS011;22257;52.232;21.084;2022-08-21T05:45:18;6.10;;;3.90;;
36215;SDS011;22257;52.232;21.084;2022-08-21T05:47:45;10.55;;;4.30;;
36215;SDS011;22257;52.232;21.084;2022-08-21T05:50:11;9.15;;;4.22;;
36215;SDS011;22257;52.232;21.084;2022-08-21T05:52:37;7.40;;;3.98;;
36215;SDS011;22257;52.232;21.084;2022-08-21T05:55:04;9.45;;;3.95;;
36215;SDS011;22257;52.232;21.084;2022-08-21T05:57:31;5.08;;;3.77;;
36215;SDS011;22257;52.232;21.084;2022-08-21T05:59:57;4.22;;;3.75;;
36215;SDS011;22257;52.232;21.084;2022-08-21T06:02:24;7.90;;;3.80;;
36215;SDS011;22257;52.232;21.084;2022-08-21T06:04:50;11.08;;;4.22;;
36215;SDS011;22257;52.232;21.084;2022-08-21T06:07:16;9.35;;;3.83;;
36215;SDS011;22257;52.232;21.084;2022-08-21T06:09:42;6.67;;;4.00;;
36215;SDS011;22257;52.232;21.084;2022-08-21T06:12:09;9.13;;;3.47;;
36215;SDS011;22257;52.232;21.084;2022-08-21T06:14:38;7.35;;;3.52;;
36215;SDS011;22257;52.232;21.084;2022-08-21T06:17:07;9.58;;;4.28;;
36215;SDS011;22257;52.232;21.084;2022-08-21T06:19:36;7.00;;;3.70;;
36215;SDS011;22257;52.232;21.084;2022-08-21T06:22:03;9.80;;;3.90;;
36215;SDS011;22257;52.232;21.084;2022-08-21T06:24:30;7.03;;;3.95;;
36215;SDS011;22257;52.232;21.084;2022-08-21T06:26:57;5.17;;;3.72;;
36215;SDS011;22257;52.232;21.084;2022-08-21T06:29:23;8.80;;;4.05;;
36215;SDS011;22257;52.232;21.084;2022-08-21T06:31:50;6.53;;;3.80;;
36215;SDS011;22257;52.232;21.084;2022-08-21T06:34:17;11.83;;;4.30;;
36215;SDS011;22257;52.232;21.084;2022-08-21T06:36:44;9.65;;;4.10;;
36215;SDS011;22257;52.232;21.084;2022-08-21T06:39:10;8.15;;;4.03;;
36215;SDS011;22257;52.232;21.084;2022-08-21T06:41:39;8.50;;;3.85;;
36215;SDS011;22257;52.232;21.084;2022-08-21T06:44:05;7.95;;;4.05;;
36215;SDS011;22257;52.232;21.084;2022-08-21T06:46:32;12.20;;;3.90;;
36215;SDS011;22257;52.232;21.084;2022-08-21T06:48:59;6.00;;;3.58;;
36215;SDS011;22257;52.232;21.084;2022-08-21T06:51:26;9.85;;;4.17;;
36215;SDS011;22257;52.232;21.084;2022-08-21T06:53:52;6.33;;;3.50;;
36215;SDS011;22257;52.232;21.084;2022-08-21T06:56:19;8.58;;;4.10;;
36215;SDS011;22257;52.232;21.084;2022-08-21T06:58:46;9.30;;;3.98;;
36215;SDS011;22257;52.232;21.084;2022-08-21T07:01:12;8.40;;;3.80;;
36215;SDS011;22257;52.232;21.084;2022-08-21T07:03:40;7.17;;;4.03;;
36215;SDS011;22257;52.232;21.084;2022-08-21T07:06:08;10.88;;;4.30;;
36215;SDS011;22257;52.232;21.084;2022-08-21T07:08:37;8.18;;;3.87;;
36215;SDS011;22257;52.232;21.084;2022-08-21T07:11:07;5.33;;;3.80;;
36215;SDS011;22257;52.232;21.084;2022-08-21T07:13:37;6.97;;;3.77;;
36215;SDS011;22257;52.232;21.084;2022-08-21T07:16:03;6.85;;;3.90;;
36215;SDS011;22257;52.232;21.084;2022-08-21T07:18:30;7.45;;;3.85;;
36215;SDS011;22257;52.232;21.084;2022-08-21T07:20:56;6.87;;;3.90;;
36215;SDS011;22257;52.232;21.084;2022-08-21T07:23:27;8.98;;;4.30;;
36215;SDS011;22257;52.232;21.084;2022-08-21T07:25:55;9.23;;;4.28;;
36215;SDS011;22257;52.232;21.084;2022-08-21T07:28:21;8.70;;;4.47;;
36215;SDS011;22257;52.232;21.084;2022-08-21T07:30:51;5.78;;;4.00;;
36215;SDS011;22257;52.232;21.084;2022-08-21T07:33:20;5.42;;;3.92;;
36215;SDS011;22257;52.232;21.084;2022-08-21T07:35:48;7.70;;;3.90;;
36215;SDS011;22257;52.232;21.084;2022-08-21T07:38:15;5.67;;;3.87;;
36215;SDS011;22257;52.232;21.084;2022-08-21T07:40:41;7.92;;;4.03;;
36215;SDS011;22257;52.232;21.084;2022-08-21T07:43:07;5.97;;;3.98;;
36215;SDS011;22257;52.232;21.084;2022-08-21T07:45:34;11.43;;;4.15;;
36215;SDS011;22257;52.232;21.084;2022-08-21T07:48:01;9.33;;;4.37;;
36215;SDS011;22257;52.232;21.084;2022-08-21T07:50:27;6.08;;;3.65;;
36215;SDS011;22257;52.232;21.084;2022-08-21T07:52:53;7.17;;;4.05;;
36215;SDS011;22257;52.232;21.084;2022-08-21T07:55:19;9.93;;;4.15;;
36215;SDS011;22257;52.232;21.084;2022-08-21T07:57:47;5.37;;;3.83;;
36215;SDS011;22257;52.232;21.084;2022-08-21T08:00:15;5.37;;;3.72;;
36215;SDS011;22257;52.232;21.084;2022-08-21T08:02:46;6.75;;;4.03;;
36215;SDS011;22257;52.232;21.084;2022-08-21T08:05:18;10.60;;;4.45;;
36215;SDS011;22257;52.232;21.084;2022-08-21T08:07:46;10.72;;;3.92;;
36215;SDS011;22257;52.232;21.084;2022-08-21T08:10:13;5.80;;;3.65;;
36215;SDS011;22257;52.232;21.084;2022-08-21T08:12:40;8.05;;;4.00;;
36215;SDS011;22257;52.232;21.084;2022-08-21T08:15:09;8.25;;;4.00;;
36215;SDS011;22257;52.232;21.084;2022-08-21T08:17:40;6.70;;;3.80;;
36215;SDS011;22257;52.232;21.084;2022-08-21T08:20:07;10.00;;;3.70;;
36215;SDS011;22257;52.232;21.084;2022-08-21T08:22:35;7.05;;;3.95;;
36215;SDS011;22257;52.232;21.084;2022-08-21T08:25:03;8.50;;;3.65;;
36215;SDS011;22257;52.232;21.084;2022-08-21T08:27:31;10.68;;;3.80;;
36215;SDS011;22257;52.232;21.084;2022-08-21T08:29:58;8.85;;;3.72;;
36215;SDS011;22257;52.232;21.084;2022-08-21T08:32:24;7.42;;;3.47;;
36215;SDS011;22257;52.232;21.084;2022-08-21T08:34:50;8.70;;;3.45;;
36215;SDS011;22257;52.232;21.084;2022-08-21T08:37:18;8.10;;;3.50;;
36215;SDS011;22257;52.232;21.084;2022-08-21T08:39:46;9.23;;;3.55;;
36215;SDS011;22257;52.232;21.084;2022-08-21T08:42:14;6.65;;;3.50;;
36215;SDS011;22257;52.232;21.084;2022-08-21T08:44:42;11.05;;;4.00;;
36215;SDS011;22257;52.232;21.084;2022-08-21T08:47:10;7.00;;;4.00;;
36215;SDS011;22257;52.232;21.084;2022-08-21T08:49:40;4.90;;;3.33;;
36215;SDS011;22257;52.232;21.084;2022-08-21T08:52:20;9.85;;;4.12;;
36215;SDS011;22257;52.232;21.084;2022-08-21T08:55:07;6.10;;;3.72;;
36215;SDS011;22257;52.232;21.084;2022-08-21T08:57:36;8.08;;;3.87;;
36215;SDS011;22257;52.232;21.084;2022-08-21T09:00:05;6.28;;;3.70;;
36215;SDS011;22257;52.232;21.084;2022-08-21T09:02:37;6.80;;;3.22;;
36215;SDS011;22257;52.232;21.084;2022-08-21T09:05:05;9.00;;;3.70;;
36215;SDS011;22257;52.232;21.084;2022-08-21T09:11:10;10.78;;;2.80;;
36215;SDS011;22257;52.232;21.084;2022-08-21T09:12:56;8.05;;;3.30;;
36215;SDS011;22257;52.232;21.084;2022-08-21T09:15:57;8.70;;;3.30;;
36215;SDS011;22257;52.232;21.084;2022-08-21T09:21:24;10.70;;;3.20;;
36215;SDS011;22257;52.232;21.084;2022-08-21T09:24:01;6.40;;;3.10;;
36215;SDS011;22257;52.232;21.084;2022-08-21T09:27:07;4.65;;;2.72;;
36215;SDS011;22257;52.232;21.084;2022-08-21T09:29:38;8.00;;;2.70;;
36215;SDS011;22257;52.232;21.084;2022-08-21T09:32:10;5.58;;;2.42;;
36215;SDS011;22257;52.232;21.084;2022-08-21T09:34:59;4.10;;;2.72;;
36215;SDS011;22257;52.232;21.084;2022-08-21T09:37:34;5.65;;;2.83;;
36215;SDS011;22257;52.232;21.084;2022-08-21T09:40:13;6.75;;;2.87;;
36215;SDS011;22257;52.232;21.084;2022-08-21T09:45:33;4.67;;;2.77;;
36215;SDS011;22257;52.232;21.084;2022-08-21T09:47:35;7.62;;;2.77;;
36215;SDS011;22257;52.232;21.084;2022-08-21T09:50:13;10.13;;;2.80;;
36215;SDS011;22257;52.232;21.084;2022-08-21T09:52:42;5.95;;;2.92;;
36215;SDS011;22257;52.232;21.084;2022-08-21T09:55:23;10.00;;;2.63;;
36215;SDS011;22257;52.232;21.084;2022-08-21T09:58:05;6.58;;;2.70;;
36215;SDS011;22257;52.232;21.084;2022-08-21T10:00:34;5.25;;;3.12;;
36215;SDS011;22257;52.232;21.084;2022-08-21T10:03:35;10.55;;;2.95;;
36215;SDS011;22257;52.232;21.084;2022-08-21T10:05:51;9.83;;;2.75;;
36215;SDS011;22257;52.232;21.084;2022-08-21T10:08:26;5.03;;;3.00;;
36215;SDS011;22257;52.232;21.084;2022-08-21T10:10:55;7.75;;;2.65;;
36215;SDS011;22257;52.232;21.084;2022-08-21T10:21:22;5.13;;;2.60;;
36215;SDS011;22257;52.232;21.084;2022-08-21T10:37:57;6.33;;;2.65;;
36215;SDS011;22257;52.232;21.084;2022-08-21T10:43:37;5.28;;;2.47;;
36215;SDS011;22257;52.232;21.084;2022-08-21T10:46:08;3.02;;;2.37;;
36215;SDS011;22257;52.232;21.084;2022-08-21T10:48:47;4.03;;;2.50;;
36215;SDS011;22257;52.232;21.084;2022-08-21T10:56:24;6.12;;;2.20;;
36215;SDS011;22257;52.232;21.084;2022-08-21T11:01:31;2.72;;;2.45;;
36215;SDS011;22257;52.232;21.084;2022-08-21T11:04:09;5.55;;;2.30;;
36215;SDS011;22257;52.232;21.084;2022-08-21T11:06:38;7.78;;;2.35;;
36215;SDS011;22257;52.232;21.084;2022-08-21T11:09:15;6.78;;;2.15;;
36215;SDS011;22257;52.232;21.084;2022-08-21T11:11:41;5.35;;;2.55;;
36215;SDS011;22257;52.232;21.084;2022-08-21T11:14:18;5.35;;;2.22;;
36215;SDS011;22257;52.232;21.084;2022-08-21T11:16:46;4.80;;;2.20;;
36215;SDS011;22257;52.232;21.084;2022-08-21T11:19:32;5.58;;;2.40;;
36215;SDS011;22257;52.232;21.084;2022-08-21T11:25:03;8.93;;;2.27;;
36215;SDS011;22257;52.232;21.084;2022-08-21T11:27:33;3.10;;;2.02;;
36215;SDS011;22257;52.232;21.084;2022-08-21T11:30:10;5.07;;;2.40;;
36215;SDS011;22257;52.232;21.084;2022-08-21T11:35:23;4.03;;;1.95;;
36215;SDS011;22257;52.232;21.084;2022-08-21T11:43:19;6.17;;;2.02;;
36215;SDS011;22257;52.232;21.084;2022-08-21T11:51:30;5.42;;;2.20;;
36215;SDS011;22257;52.232;21.084;2022-08-21T11:56:57;7.25;;;2.40;;
36215;SDS011;22257;52.232;21.084;2022-08-21T11:59:49;3.20;;;2.10;;
36215;SDS011;22257;52.232;21.084;2022-08-21T12:04:32;3.60;;;2.40;;
36215;SDS011;22257;52.232;21.084;2022-08-21T12:10:00;6.03;;;2.33;;
36215;SDS011;22257;52.232;21.084;2022-08-21T12:12:35;4.87;;;1.82;;
36215;SDS011;22257;52.232;21.084;2022-08-21T12:15:06;5.50;;;1.87;;
36215;SDS011;22257;52.232;21.084;2022-08-21T12:17:38;5.87;;;2.20;;
36215;SDS011;22257;52.232;21.084;2022-08-21T12:28:07;5.53;;;2.35;;
36215;SDS011;22257;52.232;21.084;2022-08-21T12:30:36;4.08;;;2.70;;
36215;SDS011;22257;52.232;21.084;2022-08-21T12:33:18;8.75;;;2.40;;
36215;SDS011;22257;52.232;21.084;2022-08-21T12:38:14;8.60;;;2.12;;
36215;SDS011;22257;52.232;21.084;2022-08-21T12:41:00;4.20;;;2.25;;
36215;SDS011;22257;52.232;21.084;2022-08-21T12:43:30;4.62;;;2.45;;
36215;SDS011;22257;52.232;21.084;2022-08-21T12:45:59;8.00;;;2.25;;
36215;SDS011;22257;52.232;21.084;2022-08-21T12:51:17;2.65;;;2.22;;
36215;SDS011;22257;52.232;21.084;2022-08-21T12:56:17;3.37;;;2.00;;
36215;SDS011;22257;52.232;21.084;2022-08-21T12:58:46;8.23;;;2.22;;
36215;SDS011;22257;52.232;21.084;2022-08-21T13:03:55;7.25;;;2.00;;
36215;SDS011;22257;52.232;21.084;2022-08-21T13:06:24;3.12;;;2.08;;
36215;SDS011;22257;52.232;21.084;2022-08-21T13:08:55;5.22;;;2.02;;
36215;SDS011;22257;52.232;21.084;2022-08-21T13:13:50;3.98;;;2.30;;
36215;SDS011;22257;52.232;21.084;2022-08-21T13:16:23;6.62;;;2.25;;
36215;SDS011;22257;52.232;21.084;2022-08-21T13:18:56;5.72;;;2.60;;
36215;SDS011;22257;52.232;21.084;2022-08-21T13:21:29;8.28;;;2.80;;
36215;SDS011;22257;52.232;21.084;2022-08-21T13:26:33;8.98;;;2.10;;
36215;SDS011;22257;52.232;21.084;2022-08-21T13:29:06;10.03;;;2.65;;
36215;SDS011;22257;52.232;21.084;2022-08-21T13:31:36;5.95;;;2.65;;
36215;SDS011;22257;52.232;21.084;2022-08-21T13:34:05;4.67;;;2.50;;
36215;SDS011;22257;52.232;21.084;2022-08-21T13:36:35;3.47;;;2.40;;
36215;SDS011;22257;52.232;21.084;2022-08-21T13:39:08;4.75;;;2.35;;
36215;SDS011;22257;52.232;21.084;2022-08-21T13:41:37;3.05;;;2.35;;
36215;SDS011;22257;52.232;21.084;2022-08-21T13:46:34;5.10;;;2.12;;
36215;SDS011;22257;52.232;21.084;2022-08-21T13:49:02;3.62;;;1.80;;
36215;SDS011;22257;52.232;21.084;2022-08-21T13:51:31;5.22;;;2.30;;
36215;SDS011;22257;52.232;21.084;2022-08-21T13:53:58;2.98;;;2.00;;
36215;SDS011;22257;52.232;21.084;2022-08-21T13:56:26;4.20;;;2.50;;
36215;SDS011;22257;52.232;21.084;2022-08-21T13:58:55;3.95;;;2.17;;
36215;SDS011;22257;52.232;21.084;2022-08-21T14:04:17;4.42;;;2.40;;
36215;SDS011;22257;52.232;21.084;2022-08-21T14:06:46;10.58;;;2.25;;
36215;SDS011;22257;52.232;21.084;2022-08-21T14:09:22;6.03;;;2.27;;
36215;SDS011;22257;52.232;21.084;2022-08-21T14:11:55;3.12;;;2.10;;
36215;SDS011;22257;52.232;21.084;2022-08-21T14:14:24;5.83;;;2.42;;
36215;SDS011;22257;52.232;21.084;2022-08-21T14:17:02;3.33;;;2.12;;
36215;SDS011;22257;52.232;21.084;2022-08-21T14:24:58;2.47;;;2.02;;
36215;SDS011;22257;52.232;21.084;2022-08-21T14:27:35;3.17;;;2.00;;
36215;SDS011;22257;52.232;21.084;2022-08-21T14:30:10;3.42;;;2.25;;
36215;SDS011;22257;52.232;21.084;2022-08-21T14:32:45;3.80;;;2.40;;
36215;SDS011;22257;52.232;21.084;2022-08-21T14:35:12;5.20;;;2.20;;
36215;SDS011;22257;52.232;21.084;2022-08-21T14:37:42;4.20;;;2.30;;
36215;SDS011;22257;52.232;21.084;2022-08-21T14:40:10;7.17;;;2.30;;
36215;SDS011;22257;52.232;21.084;2022-08-21T14:42:39;4.45;;;2.22;;
36215;SDS011;22257;52.232;21.084;2022-08-21T14:45:14;3.98;;;2.05;;
36215;SDS011;22257;52.232;21.084;2022-08-21T14:47:42;3.75;;;1.95;;
36215;SDS011;22257;52.232;21.084;2022-08-21T14:50:10;4.85;;;2.12;;
36215;SDS011;22257;52.232;21.084;2022-08-21T14:52:37;3.35;;;1.90;;
36215;SDS011;22257;52.232;21.084;2022-08-21T14:55:05;3.27;;;1.77;;
36215;SDS011;22257;52.232;21.084;2022-08-21T14:57:32;2.22;;;1.70;;
36215;SDS011;22257;52.232;21.084;2022-08-21T14:59:59;7.65;;;1.92;;
36215;SDS011;22257;52.232;21.084;2022-08-21T15:02:26;5.47;;;2.20;;
36215;SDS011;22257;52.232;21.084;2022-08-21T15:04:52;4.45;;;1.90;;
36215;SDS011;22257;52.232;21.084;2022-08-21T15:07:18;4.92;;;1.90;;
36215;SDS011;22257;52.232;21.084;2022-08-21T15:09:44;5.35;;;2.00;;
36215;SDS011;22257;52.232;21.084;2022-08-21T15:12:10;4.17;;;1.70;;
36215;SDS011;22257;52.232;21.084;2022-08-21T15:14:39;5.47;;;2.37;;
36215;SDS011;22257;52.232;21.084;2022-08-21T15:17:07;5.12;;;2.10;;
36215;SDS011;22257;52.232;21.084;2022-08-21T15:19:35;5.17;;;2.02;;
36215;SDS011;22257;52.232;21.084;2022-08-21T15:22:02;3.50;;;1.77;;
36215;SDS011;22257;52.232;21.084;2022-08-21T15:24:29;12.18;;;1.98;;
36215;SDS011;22257;52.232;21.084;2022-08-21T15:26:56;2.05;;;1.45;;
36215;SDS011;22257;52.232;21.084;2022-08-21T15:29:25;3.85;;;1.92;;
36215;SDS011;22257;52.232;21.084;2022-08-21T15:31:56;5.75;;;1.87;;
36215;SDS011;22257;52.232;21.084;2022-08-21T15:34:25;5.85;;;2.00;;
36215;SDS011;22257;52.232;21.084;2022-08-21T15:36:54;4.73;;;2.03;;
36215;SDS011;22257;52.232;21.084;2022-08-21T15:39:22;3.95;;;1.70;;
36215;SDS011;22257;52.232;21.084;2022-08-21T15:41:49;14.20;;;2.30;;
36215;SDS011;22257;52.232;21.084;2022-08-21T15:44:16;7.72;;;2.42;;
36215;SDS011;22257;52.232;21.084;2022-08-21T15:46:43;4.67;;;2.25;;
36215;SDS011;22257;52.232;21.084;2022-08-21T15:49:10;2.50;;;2.12;;
36215;SDS011;22257;52.232;21.084;2022-08-21T15:51:36;4.70;;;2.50;;
36215;SDS011;22257;52.232;21.084;2022-08-21T15:54:03;5.25;;;2.37;;
36215;SDS011;22257;52.232;21.084;2022-08-21T15:56:33;4.22;;;2.60;;
36215;SDS011;22257;52.232;21.084;2022-08-21T15:59:07;10.68;;;2.47;;
36215;SDS011;22257;52.232;21.084;2022-08-21T16:01:32;4.20;;;2.42;;
36215;SDS011;22257;52.232;21.084;2022-08-21T16:03:59;5.28;;;2.75;;
36215;SDS011;22257;52.232;21.084;2022-08-21T16:06:25;8.35;;;2.60;;
36215;SDS011;22257;52.232;21.084;2022-08-21T16:08:51;3.92;;;2.50;;
36215;SDS011;22257;52.232;21.084;2022-08-21T16:11:17;4.70;;;2.98;;
36215;SDS011;22257;52.232;21.084;2022-08-21T16:13:44;5.45;;;2.70;;
36215;SDS011;22257;52.232;21.084;2022-08-21T16:16:12;6.75;;;2.77;;
36215;SDS011;22257;52.232;21.084;2022-08-21T16:18:47;4.65;;;2.60;;
36215;SDS011;22257;52.232;21.084;2022-08-21T16:21:14;6.42;;;2.50;;
36215;SDS011;22257;52.232;21.084;2022-08-21T16:23:41;5.20;;;2.40;;
36215;SDS011;22257;52.232;21.084;2022-08-21T16:26:08;5.53;;;2.65;;
36215;SDS011;22257;52.232;21.084;2022-08-21T16:28:37;10.08;;;2.90;;
36215;SDS011;22257;52.232;21.084;2022-08-21T16:31:06;5.42;;;2.80;;
36215;SDS011;22257;52.232;21.084;2022-08-21T16:33:43;4.00;;;2.60;;